Time;durP1;ratioP1;P1;durP2;ratioP2;P2;SDS_P1;SDS_P2;PMS_P1;PMS_P2;Temp;Humidity;BMP_temperature;BMP_pressure;BME280_temperature;BME280_humidity;BME280_pressure;Samples;Min_cycle;Max_cycle;Signal;HPM_P1;HPM_P2
2023/03/10 00:02:04;;;;;;;58.95;13.60;;;1.40;99.90;;;;;;5078559;28;20396;-71
2023/03/10 00:04:30;;;;;;;51.53;11.18;;;1.50;99.90;;;;;;5061495;28;20036;-71
2023/03/10 00:06:55;;;;;;;56.67;13.13;;;1.50;99.90;;;;;;5078787;28;20055;-72
2023/03/10 00:09:21;;;;;;;58.95;13.48;;;1.50;99.90;;;;;;5078118;28;20056;-71
2023/03/10 00:11:47;;;;;;;61.65;12.93;;;1.50;99.90;;;;;;5096201;28;20392;-71
2023/03/10 00:14:14;;;;;;;53.45;12.07;;;1.40;99.90;;;;;;5095872;28;20040;-72
2023/03/10 00:16:39;;;;;;;54.53;12.05;;;1.50;99.90;;;;;;5078486;28;20048;-73
2023/03/10 00:19:06;;;;;;;52.90;12.52;;;1.40;99.90;;;;;;5078285;28;20059;-73
2023/03/10 00:21:32;;;;;;;56.33;13.15;;;1.40;99.90;;;;;;5081762;28;20059;-73
2023/03/10 00:23:58;;;;;;;53.17;13.10;;;1.50;99.90;;;;;;5079705;28;20036;-71
2023/03/10 00:26:26;;;;;;;61.53;12.90;;;1.50;99.90;;;;;;5078742;28;20499;-72
2023/03/10 00:28:53;;;;;;;64.43;13.63;;;1.50;99.90;;;;;;5096101;28;20139;-71
2023/03/10 00:31:21;;;;;;;60.50;13.05;;;1.40;99.90;;;;;;5061222;28;20403;-71
2023/03/10 00:33:48;;;;;;;61.53;15.90;;;1.50;99.90;;;;;;5078095;28;20518;-70
2023/03/10 00:36:23;;;;;;;49.83;13.27;;;1.50;99.90;;;;;;5078257;28;20156;-72
2023/03/10 00:38:49;;;;;;;60.22;12.95;;;1.50;99.90;;;;;;5095759;28;20048;-70
2023/03/10 00:41:18;;;;;;;55.35;11.30;;;1.40;99.90;;;;;;5095872;28;20056;-72
2023/03/10 00:43:44;;;;;;;45.83;10.30;;;1.40;99.90;;;;;;5095610;28;20051;-72
2023/03/10 00:46:11;;;;;;;57.33;13.27;;;1.50;99.90;;;;;;5095740;28;20060;-71
2023/03/10 00:48:37;;;;;;;52.85;11.68;;;1.50;99.90;;;;;;5061193;28;20040;-71
2023/03/10 00:51:03;;;;;;;54.25;12.32;;;1.50;99.90;;;;;;5061131;28;20052;-72
2023/03/10 00:53:29;;;;;;;61.28;13.75;;;1.50;99.90;;;;;;5077581;28;20446;-71
2023/03/10 00:56:14;;;;;;;61.15;12.98;;;1.50;99.90;;;;;;5077456;28;20048;-72
2023/03/10 00:58:40;;;;;;;53.55;13.43;;;1.40;99.90;;;;;;5095042;28;20052;-72
2023/03/10 01:01:31;;;;;;;46.47;11.27;;;1.50;99.90;;;;;;5060823;28;20048;-71
2023/03/10 01:04:00;;;;;;;65.35;15.40;;;1.50;99.90;;;;;;5095828;28;20047;-73
2023/03/10 01:06:26;;;;;;;55.40;13.35;;;1.40;99.90;;;;;;5077847;28;20078;-71
2023/03/10 01:08:53;;;;;;;62.25;13.55;;;1.40;99.90;;;;;;5077890;28;20048;-73
2023/03/10 01:11:22;;;;;;;59.03;13.43;;;1.40;99.90;;;;;;5095900;28;20120;-71
2023/03/10 01:13:49;;;;;;;56.60;11.95;;;1.40;99.90;;;;;;5095442;28;20051;-71
2023/03/10 01:16:15;;;;;;;55.70;12.05;;;1.40;99.90;;;;;;5077412;28;20090;-71
2023/03/10 01:18:42;;;;;;;58.15;12.43;;;1.40;99.90;;;;;;5078672;28;20556;-71
2023/03/10 01:21:36;;;;;;;51.60;12.27;;;1.40;99.90;;;;;;5095859;28;20048;-71
2023/03/10 01:24:03;;;;;;;48.55;11.52;;;1.40;99.90;;;;;;5076502;28;20467;-71
2023/03/10 01:26:29;;;;;;;53.72;13.20;;;1.30;99.90;;;;;;5097571;28;20510;-71
2023/03/10 01:28:55;;;;;;;55.30;12.15;;;1.40;99.90;;;;;;5064848;28;20525;-71
2023/03/10 01:31:21;;;;;;;54.92;12.75;;;1.30;99.90;;;;;;5058548;28;20061;-71
2023/03/10 01:33:47;;;;;;;55.58;12.27;;;1.30;99.90;;;;;;5057237;28;20098;-71
2023/03/10 01:36:22;;;;;;;55.97;11.75;;;1.20;99.90;;;;;;5056728;28;20041;-72
2023/03/10 01:38:48;;;;;;;52.45;11.93;;;1.40;99.90;;;;;;5055517;28;20084;-72
2023/03/10 01:41:14;;;;;;;51.13;11.30;;;1.30;99.90;;;;;;5053057;28;20507;-71
2023/03/10 01:43:42;;;;;;;57.72;11.90;;;1.30;99.90;;;;;;5054214;28;20091;-72
2023/03/10 01:46:17;;;;;;;;;;;1.30;99.90;;;;;;5054072;28;20041;-71
2023/03/10 01:48:42;;;;;;;57.03;11.25;;;1.30;99.90;;;;;;5052882;28;19920;-72
2023/03/10 01:51:08;;;;;;;57.90;12.00;;;1.30;99.90;;;;;;5052876;28;20053;-72
2023/03/10 01:53:34;;;;;;;51.78;12.13;;;1.30;99.90;;;;;;5054577;28;20033;-72
2023/03/10 01:56:02;;;;;;;60.15;13.02;;;1.30;99.90;;;;;;5052913;28;20473;-70
2023/03/10 01:58:35;;;;;;;49.10;11.07;;;1.30;99.90;;;;;;5053990;28;20484;-72
2023/03/10 02:01:01;;;;;;;65.40;15.15;;;1.40;99.90;;;;;;5037226;28;20137;-71
2023/03/10 02:03:36;;;;;;;54.45;11.82;;;1.30;99.90;;;;;;5052986;28;20545;-71
2023/03/10 02:06:07;;;;;;;53.83;12.25;;;1.30;99.90;;;;;;5037170;28;20056;-71
2023/03/10 02:08:46;;;;;;;53.88;11.05;;;1.30;99.90;;;;;;5053566;28;20068;-71
2023/03/10 02:11:13;;;;;;;54.70;11.75;;;1.30;99.90;;;;;;5053833;28;20103;-72
2023/03/10 02:13:39;;;;;;;59.03;13.23;;;1.30;99.90;;;;;;5053753;28;20041;-72
2023/03/10 02:16:05;;;;;;;46.03;10.65;;;1.30;99.90;;;;;;5036203;28;20075;-72
2023/03/10 02:18:32;;;;;;;54.60;11.85;;;1.30;99.90;;;;;;5053756;28;20091;-73
2023/03/10 02:21:17;;;;;;;58.53;13.25;;;1.30;99.90;;;;;;5035848;28;20053;-71
2023/03/10 02:23:46;;;;;;;49.75;11.15;;;1.30;99.90;;;;;;5052397;28;20048;-71
2023/03/10 02:26:24;;;;;;;53.25;11.90;;;1.30;99.90;;;;;;5052621;28;20405;-71
2023/03/10 02:28:51;;;;;;;52.65;12.57;;;1.30;99.90;;;;;;5080381;28;20096;-71
2023/03/10 02:31:17;;;;;;;59.63;13.30;;;1.30;99.90;;;;;;5076806;28;20047;-72
2023/03/10 02:33:45;;;;;;;64.32;15.50;;;1.20;99.90;;;;;;5076668;28;20056;-71
2023/03/10 02:36:21;;;;;;;59.92;15.30;;;1.20;99.90;;;;;;5076153;28;20108;-71
2023/03/10 02:38:47;;;;;;;55.88;12.75;;;1.30;99.90;;;;;;5075844;28;20060;-72
2023/03/10 02:41:29;;;;;;;64.60;15.48;;;1.20;99.90;;;;;;5076465;28;20156;-71
2023/03/10 02:43:58;;;;;;;49.03;12.63;;;1.20;99.90;;;;;;5093478;28;20043;-73
2023/03/10 02:46:25;;;;;;;59.88;14.52;;;1.30;99.90;;;;;;5075413;28;20101;-71
2023/03/10 02:48:50;;;;;;;62.85;16.70;;;1.20;99.90;;;;;;5093224;28;20052;-71
2023/03/10 02:51:25;;;;;;;59.97;14.82;;;1.20;99.90;;;;;;5076479;28;20043;-71
2023/03/10 02:53:50;;;;;;;57.80;13.13;;;1.20;99.90;;;;;;5076459;28;20040;-73
2023/03/10 02:56:16;;;;;;;49.53;11.57;;;1.20;99.90;;;;;;5093545;28;20391;-71
2023/03/10 02:58:42;;;;;;;49.45;11.57;;;1.20;99.90;;;;;;5093444;28;20040;-72
2023/03/10 03:01:08;;;;;;;61.08;14.63;;;1.20;99.90;;;;;;5093403;28;20044;-72
2023/03/10 03:03:34;;;;;;;53.97;12.93;;;1.10;99.90;;;;;;5093346;28;20406;-73
2023/03/10 03:06:00;;;;;;;46.80;11.95;;;1.10;99.90;;;;;;5093335;28;20372;-71
2023/03/10 03:08:26;;;;;;;46.95;11.30;;;1.10;99.90;;;;;;5093898;28;20088;-73
2023/03/10 03:10:52;;;;;;;48.53;11.65;;;1.10;99.90;;;;;;5093364;28;20044;-74
2023/03/10 03:13:18;;;;;;;44.70;9.48;;;1.10;99.90;;;;;;5058675;28;20047;-72
2023/03/10 03:15:44;;;;;;;43.80;11.15;;;1.10;99.90;;;;;;5093940;28;20043;-71
2023/03/10 03:18:10;;;;;;;45.15;10.93;;;1.20;99.90;;;;;;5093790;28;20606;-71
2023/03/10 03:20:37;;;;;;;48.92;11.73;;;1.10;99.90;;;;;;5042738;28;20058;-73
2023/03/10 03:23:04;;;;;;;45.65;10.27;;;1.10;99.90;;;;;;5093096;28;20036;-72
2023/03/10 03:25:35;;;;;;;51.45;12.07;;;1.10;99.90;;;;;;5075414;28;20055;-72
2023/03/10 03:28:01;;;;;;;48.67;11.00;;;1.10;99.90;;;;;;5093283;28;20118;-71
2023/03/10 03:30:28;;;;;;;48.67;12.38;;;1.10;99.90;;;;;;5075425;28;20091;-72
2023/03/10 03:32:54;;;;;;;45.95;10.55;;;1.10;99.90;;;;;;5093768;28;20044;-71
2023/03/10 03:35:23;;;;;;;47.80;10.93;;;1.10;99.90;;;;;;5093125;28;20044;-72
2023/03/10 03:37:53;;;;;;;47.42;10.13;;;1.10;99.90;;;;;;5093105;28;20048;-72
2023/03/10 03:40:20;;;;;;;49.53;11.02;;;1.10;99.90;;;;;;5075280;28;20044;-72
2023/03/10 03:42:48;;;;;;;49.50;10.98;;;1.10;99.90;;;;;;5074990;28;20093;-72
2023/03/10 03:45:16;;;;;;;52.83;11.43;;;1.10;99.90;;;;;;5092993;28;20044;-72
2023/03/10 03:47:42;;;;;;;40.58;9.15;;;1.10;99.90;;;;;;5075015;28;20127;-73
2023/03/10 03:50:10;;;;;;;53.63;12.00;;;1.10;99.90;;;;;;5093185;28;20122;-72
2023/03/10 03:52:36;;;;;;;55.75;12.05;;;1.10;99.90;;;;;;5092717;28;20527;-72
2023/03/10 03:55:03;;;;;;;58.78;13.30;;;1.10;99.90;;;;;;5077335;28;20044;-73
2023/03/10 03:57:28;;;;;;;55.58;13.38;;;1.10;99.90;;;;;;5078910;28;20040;-72
2023/03/10 03:59:54;;;;;;;61.33;14.30;;;1.10;99.90;;;;;;5098016;28;20126;-72
2023/03/10 04:02:20;;;;;;;51.60;12.70;;;1.10;99.90;;;;;;5079634;28;20056;-73
2023/03/10 04:04:46;;;;;;;51.80;12.27;;;1.00;99.90;;;;;;5096224;28;20526;-79
2023/03/10 04:07:11;;;;;;;57.65;12.73;;;1.00;99.90;;;;;;5096726;28;20138;-71
2023/03/10 04:09:38;;;;;;;53.88;12.40;;;1.10;99.90;;;;;;5096386;28;20365;-71
2023/03/10 04:12:05;;;;;;;62.08;14.23;;;1.10;99.90;;;;;;5078802;28;20059;-72
2023/03/10 04:14:31;;;;;;;60.35;12.88;;;1.10;99.90;;;;;;5096262;28;20048;-71
2023/03/10 04:16:57;;;;;;;67.90;14.98;;;1.00;99.90;;;;;;5096151;28;20044;-73
2023/03/10 04:19:22;;;;;;;58.10;12.70;;;1.10;99.90;;;;;;5061325;28;20144;-72
2023/03/10 04:21:48;;;;;;;64.07;15.20;;;1.10;99.90;;;;;;5077963;28;20059;-74
2023/03/10 04:24:14;;;;;;;66.35;15.23;;;1.10;99.90;;;;;;5095976;28;20036;-72
2023/03/10 04:26:40;;;;;;;67.90;15.35;;;1.10;99.90;;;;;;5096064;28;20051;-72
2023/03/10 04:29:05;;;;;;;64.38;14.02;;;1.10;99.90;;;;;;5095663;28;20074;-71
2023/03/10 04:31:31;;;;;;;65.78;14.05;;;1.10;99.90;;;;;;5095651;28;20162;-71
2023/03/10 04:33:57;;;;;;;69.18;14.95;;;1.10;99.90;;;;;;5095771;28;20036;-72
2023/03/10 04:36:23;;;;;;;71.00;14.50;;;1.10;99.90;;;;;;5096317;28;20035;-72
2023/03/10 04:38:48;;;;;;;61.13;13.88;;;1.10;99.90;;;;;;5078227;28;20109;-71
2023/03/10 04:41:14;;;;;;;66.63;14.75;;;1.10;99.90;;;;;;5096178;28;20154;-71
2023/03/10 04:43:40;;;;;;;74.72;15.93;;;1.00;99.90;;;;;;5061331;28;20036;-70
2023/03/10 04:46:06;;;;;;;66.22;13.82;;;1.00;99.90;;;;;;5095265;28;20071;-71
2023/03/10 04:48:32;;;;;;;65.43;13.55;;;1.10;99.90;;;;;;5061338;28;20052;-71
2023/03/10 04:51:04;;;;;;;64.03;13.90;;;1.10;99.90;;;;;;5095491;28;20055;-70
2023/03/10 04:54:00;;;;;;;61.55;13.73;;;1.10;99.90;;;;;;5110354;27;20366;-72
2023/03/10 04:56:25;;;;;;;57.05;12.88;;;1.10;99.90;;;;;;5110265;28;20062;-71
2023/03/10 04:58:51;;;;;;;57.63;12.07;;;1.10;99.90;;;;;;5126366;27;20048;-74
2023/03/10 05:01:17;;;;;;;66.78;13.57;;;1.10;99.90;;;;;;5110476;28;20407;-71
2023/03/10 05:03:43;;;;;;;60.28;13.07;;;1.10;99.90;;;;;;5092491;28;20040;-69
2023/03/10 05:06:14;;;;;;;53.30;10.82;;;1.10;99.90;;;;;;5109783;28;20135;-72
2023/03/10 05:08:40;;;;;;;54.38;12.82;;;1.10;99.90;;;;;;5109118;28;20122;-71
2023/03/10 05:11:07;;;;;;;53.90;12.93;;;1.10;99.90;;;;;;5108575;28;20047;-71
2023/03/10 05:13:32;;;;;;;56.40;12.13;;;1.10;99.90;;;;;;5109982;28;20449;-73
2023/03/10 05:15:58;;;;;;;50.78;10.95;;;1.10;99.90;;;;;;5125454;28;20108;-72
2023/03/10 05:18:24;;;;;;;56.60;12.27;;;1.10;99.90;;;;;;5110015;28;20090;-71
2023/03/10 05:20:54;;;;;;;46.97;11.15;;;1.10;99.90;;;;;;5110052;28;20040;-71
2023/03/10 05:23:20;;;;;;;47.60;11.07;;;1.10;99.90;;;;;;5108710;28;20052;-71
2023/03/10 05:25:45;;;;;;;51.03;11.32;;;1.10;99.90;;;;;;5091922;28;20059;-71
2023/03/10 05:28:11;;;;;;;55.17;12.43;;;1.10;99.90;;;;;;5109462;28;20439;-72
2023/03/10 05:30:37;;;;;;;39.92;8.98;;;1.10;99.90;;;;;;5108352;28;20036;-71
2023/03/10 05:33:03;;;;;;;42.63;11.20;;;1.10;99.90;;;;;;5109170;28;20044;-71
2023/03/10 05:35:28;;;;;;;34.10;9.45;;;1.10;99.90;;;;;;5125993;27;20048;-71
2023/03/10 05:37:54;;;;;;;41.95;8.82;;;1.10;99.90;;;;;;5109544;28;20135;-70
2023/03/10 05:40:20;;;;;;;47.45;10.20;;;1.20;99.90;;;;;;5091192;28;20073;-72
2023/03/10 05:42:49;;;;;;;46.55;11.15;;;1.20;99.90;;;;;;5108330;28;20062;-71
2023/03/10 05:45:15;;;;;;;51.80;10.02;;;1.20;99.90;;;;;;5109261;28;20060;-71
2023/03/10 05:47:42;;;;;;;37.53;7.95;;;1.10;99.90;;;;;;5108351;28;20044;-72
2023/03/10 05:50:09;;;;;;;44.17;9.67;;;1.30;99.90;;;;;;5109123;28;20070;-72
2023/03/10 05:52:37;;;;;;;38.67;9.23;;;1.30;99.90;;;;;;5107798;28;20058;-72
2023/03/10 05:55:04;;;;;;;38.95;10.45;;;1.20;99.90;;;;;;5091118;28;20043;-71
2023/03/10 05:57:29;;;;;;;40.20;9.93;;;1.20;99.90;;;;;;5109105;28;20101;-71
2023/03/10 05:59:55;;;;;;;45.65;9.65;;;1.20;99.90;;;;;;5091553;28;20060;-71
2023/03/10 06:02:21;;;;;;;45.53;10.13;;;1.30;99.90;;;;;;5107768;28;20047;-71
2023/03/10 06:04:46;;;;;;;35.40;8.95;;;1.20;99.90;;;;;;5098929;28;20044;-71
2023/03/10 06:07:12;;;;;;;47.78;10.70;;;1.20;99.90;;;;;;5093997;28;20040;-71
2023/03/10 06:09:38;;;;;;;41.05;9.57;;;1.20;99.90;;;;;;5094538;28;20052;-70
2023/03/10 06:12:04;;;;;;;40.97;9.77;;;1.20;99.90;;;;;;5093917;28;20065;-70
2023/03/10 06:14:29;;;;;;;45.63;11.00;;;1.20;99.90;;;;;;5095304;28;20044;-70
2023/03/10 06:16:55;;;;;;;49.17;10.38;;;1.30;99.90;;;;;;5111397;28;20060;-72
2023/03/10 06:19:22;;;;;;;49.60;10.70;;;1.20;99.90;;;;;;5095084;28;20056;-71
2023/03/10 06:21:48;;;;;;;32.17;7.68;;;1.20;99.90;;;;;;5099380;28;20036;-72
2023/03/10 06:24:14;;;;;;;42.67;10.55;;;1.20;99.90;;;;;;5098533;28;20152;-70
2023/03/10 06:26:40;;;;;;;41.92;9.73;;;1.20;99.90;;;;;;5096075;28;20044;-73
2023/03/10 06:29:06;;;;;;;40.67;10.50;;;1.30;99.90;;;;;;5097266;28;20051;-71
2023/03/10 06:31:32;;;;;;;30.55;7.43;;;1.30;99.90;;;;;;5079575;28;20065;-72
2023/03/10 06:33:58;;;;;;;41.22;10.13;;;1.30;99.90;;;;;;5094277;28;20055;-71
2023/03/10 06:36:25;;;;;;;33.15;8.80;;;1.30;99.90;;;;;;5095033;28;20048;-71
2023/03/10 06:38:52;;;;;;;41.63;10.23;;;1.40;99.90;;;;;;5093850;28;20101;-71
2023/03/10 06:41:19;;;;;;;51.75;10.82;;;1.40;99.90;;;;;;5093297;28;20044;-73
2023/03/10 06:43:45;;;;;;;52.57;11.70;;;1.30;99.90;;;;;;5093908;28;20097;-71
2023/03/10 06:46:12;;;;;;;34.70;8.38;;;1.30;99.90;;;;;;5094736;28;20394;-71
2023/03/10 06:48:39;;;;;;;39.42;10.38;;;1.40;99.90;;;;;;5077198;28;20044;-71
2023/03/10 06:51:09;;;;;;;;;;;1.40;99.90;;;;;;5077355;28;20036;-71
2023/03/10 06:53:35;;;;;;;40.85;8.32;;;1.30;99.90;;;;;;5111725;28;19919;-71
2023/03/10 06:56:03;;;;;;;36.35;9.40;;;1.40;99.90;;;;;;5096716;28;20082;-73
2023/03/10 06:58:30;;;;;;;;;;;1.40;99.90;;;;;;5115062;28;20058;-71
2023/03/10 07:00:56;;;;;;;;;;;1.40;99.90;;;;;;5097505;28;19920;-71
2023/03/10 07:03:23;;;;;;;22.80;5.60;;;1.40;99.90;;;;;;5096408;28;19930;-72
2023/03/10 07:05:49;;;;;;;41.75;10.65;;;1.50;99.90;;;;;;5096897;28;20402;-71
2023/03/10 07:08:15;;;;;;;43.83;10.38;;;1.50;99.90;;;;;;5096273;28;20437;-71
2023/03/10 07:10:41;;;;;;;48.30;10.95;;;1.40;99.90;;;;;;5113605;28;20051;-70
2023/03/10 07:13:08;;;;;;;57.92;14.75;;;1.40;99.90;;;;;;5079581;28;20130;-70
2023/03/10 07:15:33;;;;;;;44.28;10.82;;;1.40;99.90;;;;;;5111566;28;20059;-71
2023/03/10 07:17:59;;;;;;;48.72;10.35;;;1.50;99.90;;;;;;5114740;28;20040;-72
2023/03/10 07:20:25;;;;;;;37.88;8.57;;;1.50;99.90;;;;;;5096431;28;20135;-72
2023/03/10 07:22:51;;;;;;;45.55;11.10;;;1.50;99.90;;;;;;5062887;28;20101;-72
2023/03/10 07:25:17;;;;;;;46.83;11.40;;;1.50;99.90;;;;;;5113757;28;20115;-72
2023/03/10 07:27:43;;;;;;;54.38;13.35;;;1.50;99.90;;;;;;5114427;28;20040;-72
2023/03/10 07:30:10;;;;;;;46.25;11.23;;;1.50;99.90;;;;;;5096470;28;20047;-72
2023/03/10 07:32:35;;;;;;;44.47;10.93;;;1.50;99.90;;;;;;5096033;28;20104;-72
2023/03/10 07:35:01;;;;;;;53.88;12.60;;;1.60;99.90;;;;;;5079423;28;20449;-72
2023/03/10 07:37:27;;;;;;;46.92;10.18;;;1.60;99.90;;;;;;5113799;28;20048;-71
2023/03/10 07:39:54;;;;;;;47.05;11.85;;;1.60;99.90;;;;;;5114067;28;20066;-71
2023/03/10 07:42:20;;;;;;;51.60;11.60;;;1.60;99.90;;;;;;5113798;28;20463;-72
2023/03/10 07:44:45;;;;;;;61.72;15.50;;;1.60;99.90;;;;;;5079291;28;20593;-73
2023/03/10 07:47:11;;;;;;;52.25;12.30;;;1.60;99.90;;;;;;5095920;28;20130;-71
2023/03/10 07:49:37;;;;;;;57.90;13.45;;;1.60;99.90;;;;;;5062074;28;20514;-71
2023/03/10 07:52:03;;;;;;;52.20;13.82;;;1.60;99.90;;;;;;5113640;28;20046;-71
2023/03/10 07:54:29;;;;;;;59.92;13.15;;;1.70;99.90;;;;;;5095564;28;20408;-71
2023/03/10 07:56:56;;;;;;;58.65;12.93;;;1.70;99.90;;;;;;5078575;28;20055;-73
2023/03/10 07:59:22;;;;;;;58.40;16.35;;;1.80;99.90;;;;;;5078355;28;20062;-72
2023/03/10 08:01:48;;;;;;;70.45;16.27;;;1.80;99.90;;;;;;5113716;28;20134;-72
2023/03/10 08:04:15;;;;;;;60.33;14.43;;;1.80;99.90;;;;;;5095542;28;20040;-74
2023/03/10 08:06:41;;;;;;;60.03;13.30;;;1.80;99.90;;;;;;5113489;28;20253;-72
2023/03/10 08:09:07;;;;;;;56.85;14.40;;;1.80;99.90;;;;;;5113788;28;20092;-73
2023/03/10 08:11:33;;;;;;;55.58;11.65;;;1.80;99.90;;;;;;5078105;28;20078;-72
2023/03/10 08:13:58;;;;;;;60.50;14.50;;;1.90;99.90;;;;;;5078547;28;20039;-73
2023/03/10 08:16:24;;;;;;;65.38;15.10;;;1.90;99.90;;;;;;5095302;28;20095;-71
2023/03/10 08:18:53;;;;;;;62.13;14.57;;;1.90;99.90;;;;;;5078508;28;20112;-71
2023/03/10 08:21:19;;;;;;;58.78;14.18;;;1.90;99.90;;;;;;5078607;28;20168;-74
2023/03/10 08:23:50;;;;;;;56.10;14.57;;;1.90;99.90;;;;;;5095975;28;20043;-72
2023/03/10 08:26:18;;;;;;;69.28;16.52;;;2.00;99.90;;;;;;5113015;28;20556;-72
2023/03/10 08:28:44;;;;;;;;;;;2.00;99.90;;;;;;5095196;28;20096;-72
2023/03/10 08:31:15;;;;;;;47.40;12.23;;;2.00;99.90;;;;;;5095127;28;19923;-72
2023/03/10 08:33:43;;;;;;;54.30;13.18;;;2.10;99.90;;;;;;5112659;28;20105;-72
2023/03/10 08:36:14;;;;;;;;;;;2.10;99.90;;;;;;5095323;28;20069;-71
2023/03/10 08:38:40;;;;;;;51.53;12.40;;;2.10;99.90;;;;;;5093995;28;20348;-71
2023/03/10 08:41:16;;;;;;;52.05;11.95;;;2.10;99.90;;;;;;5095077;28;20039;-72
2023/03/10 08:43:42;;;;;;;60.67;14.80;;;2.20;99.90;;;;;;5094527;28;20130;-74
2023/03/10 08:46:09;;;;;;;72.17;17.13;;;2.20;99.90;;;;;;5113213;28;20107;-71
2023/03/10 08:48:35;;;;;;;65.28;15.93;;;2.00;99.90;;;;;;5094718;28;20512;-72
2023/03/10 08:51:01;;;;;;;67.53;16.42;;;1.90;99.90;;;;;;5094763;28;20438;-72
2023/03/10 08:53:27;;;;;;;71.00;16.73;;;2.00;99.90;;;;;;5110909;28;20051;-71
2023/03/10 08:55:53;;;;;;;60.58;14.90;;;1.90;99.90;;;;;;5094666;28;20052;-71
2023/03/10 08:58:19;;;;;;;58.53;15.55;;;2.00;99.90;;;;;;5112658;28;20406;-71
2023/03/10 09:00:44;;;;;;;60.40;15.10;;;2.10;99.90;;;;;;5112442;28;20047;-71
2023/03/10 09:03:10;;;;;;;62.58;13.88;;;2.00;99.90;;;;;;5094613;28;20044;-72
2023/03/10 09:05:36;;;;;;;57.67;14.90;;;2.10;99.90;;;;;;5094493;28;20043;-71
2023/03/10 09:08:03;;;;;;;61.15;14.77;;;2.00;99.90;;;;;;5094491;28;20047;-72
2023/03/10 09:10:29;;;;;;;61.60;15.23;;;2.00;99.90;;;;;;5112705;28;20407;-72
2023/03/10 09:12:55;;;;;;;60.80;15.50;;;2.10;99.90;;;;;;5111449;28;20040;-72
2023/03/10 09:15:21;;;;;;;59.00;15.32;;;2.10;99.90;;;;;;5112586;28;20604;-74
2023/03/10 09:17:47;;;;;;;60.25;15.38;;;2.00;99.90;;;;;;5077621;28;20046;-71
2023/03/10 09:20:16;;;;;;;63.58;15.40;;;2.00;99.90;;;;;;5077882;28;20134;-71
2023/03/10 09:22:42;;;;;;;61.35;15.57;;;2.10;99.90;;;;;;5094767;28;20040;-72
2023/03/10 09:25:09;;;;;;;65.03;16.02;;;2.00;99.90;;;;;;5094722;28;20043;-73
2023/03/10 09:27:35;;;;;;;;;;;2.00;99.90;;;;;;5094706;28;20047;-73
2023/03/10 09:30:01;;;;;;;53.63;13.05;;;2.00;99.90;;;;;;5111445;28;19923;-74
2023/03/10 09:32:27;;;;;;;56.40;14.95;;;2.00;99.90;;;;;;5061204;28;20051;-75
2023/03/10 09:34:53;;;;;;;55.65;14.35;;;2.00;99.90;;;;;;5077604;28;20039;-74
2023/03/10 09:37:18;;;;;;;45.65;10.55;;;1.90;99.90;;;;;;5094707;28;20047;-72
2023/03/10 09:39:44;;;;;;;52.15;13.98;;;2.10;99.90;;;;;;5096207;28;20541;-72
2023/03/10 09:42:23;;;;;;;60.92;14.88;;;2.10;99.90;;;;;;5116738;28;20124;-74
2023/03/10 09:45:21;;;;;;;49.20;13.18;;;2.10;99.90;;;;;;5116007;28;20381;-72
2023/03/10 09:48:02;;;;;;;57.75;13.43;;;2.10;99.90;;;;;;5079057;28;20059;-72
2023/03/10 09:50:33;;;;;;;59.00;14.32;;;2.20;99.90;;;;;;5098254;28;20036;-72
2023/03/10 09:53:28;;;;;;;54.05;14.45;;;2.20;99.90;;;;;;5115922;28;20051;-73
2023/03/10 09:55:54;;;;;;;54.80;15.07;;;2.20;99.90;;;;;;5084087;28;20480;-74
2023/03/10 09:58:29;;;;;;;63.25;17.55;;;2.10;99.90;;;;;;5098190;28;20051;-72
2023/03/10 10:00:55;;;;;;;61.25;15.88;;;2.10;99.90;;;;;;5115624;28;20047;-72
2023/03/10 10:03:26;;;;;;;58.10;15.15;;;2.10;99.90;;;;;;5097978;28;20055;-74
2023/03/10 10:05:54;;;;;;;54.28;13.40;;;2.10;99.90;;;;;;5097368;28;20051;-73
2023/03/10 10:08:53;;;;;;;60.20;14.80;;;2.20;99.90;;;;;;5097582;28;20039;-72
2023/03/10 10:11:20;;;;;;;57.22;14.40;;;2.20;99.90;;;;;;5071220;28;20055;-72
2023/03/10 10:13:45;;;;;;;38.22;9.82;;;2.20;99.90;;;;;;5080274;28;20044;-73
2023/03/10 10:16:17;;;;;;;52.75;14.68;;;2.30;99.90;;;;;;5097419;28;20054;-72
2023/03/10 10:18:58;;;;;;;49.05;13.52;;;2.30;99.90;;;;;;5080405;28;20483;-74
2023/03/10 10:21:42;;;;;;;58.03;14.68;;;2.30;99.90;;;;;;5115701;28;20476;-72
2023/03/10 10:24:10;;;;;;;48.05;13.00;;;2.30;99.90;;;;;;5097824;28;20048;-72
2023/03/10 10:26:36;;;;;;;60.28;14.93;;;2.40;99.90;;;;;;5115260;28;20039;-79
2023/03/10 10:29:14;;;;;;;53.58;14.73;;;2.30;99.90;;;;;;5080518;28;20399;-72
2023/03/10 10:31:40;;;;;;;51.15;13.20;;;2.30;99.90;;;;;;5114984;28;20093;-74
2023/03/10 10:34:22;;;;;;;54.97;14.52;;;2.20;99.90;;;;;;5080338;28;20044;-72
2023/03/10 10:36:54;;;;;;;60.70;19.17;;;2.20;99.90;;;;;;5096688;28;20238;-74
2023/03/10 10:39:30;;;;;;;62.95;15.98;;;2.10;99.90;;;;;;5080428;28;20125;-71
2023/03/10 10:42:12;;;;;;;57.05;15.15;;;2.10;99.90;;;;;;5096711;28;20402;-72
2023/03/10 10:44:42;;;;;;;58.13;13.90;;;2.00;99.90;;;;;;5097118;28;20047;-72
2023/03/10 10:47:35;;;;;;;62.50;16.98;;;2.10;99.90;;;;;;5096984;28;20089;-72
2023/03/10 10:50:18;;;;;;;64.00;15.20;;;2.10;99.90;;;;;;5104007;28;20060;-71
2023/03/10 10:52:48;;;;;;;54.25;12.73;;;2.10;99.90;;;;;;5096359;28;20039;-73
2023/03/10 10:55:34;;;;;;;60.38;15.45;;;2.10;99.90;;;;;;5115323;28;20059;-73
2023/03/10 10:58:06;;;;;;;44.88;12.05;;;2.00;99.90;;;;;;5115705;28;20048;-71
2023/03/10 11:00:35;;;;;;;62.20;15.18;;;2.00;99.90;;;;;;5115483;28;20043;-72
2023/03/10 11:03:18;;;;;;;61.53;17.17;;;2.00;99.90;;;;;;5118105;28;20628;-71
2023/03/10 11:05:44;;;;;;;65.90;15.88;;;2.00;99.90;;;;;;5118576;28;20411;-72
2023/03/10 11:08:29;;;;;;;79.70;21.58;;;1.90;99.90;;;;;;5118280;28;20048;-73
2023/03/10 11:11:23;;;;;;;57.50;14.70;;;1.80;99.90;;;;;;5117558;28;20047;-73
2023/03/10 11:14:26;;;;;;;57.40;14.98;;;1.90;99.90;;;;;;5097987;28;20036;-72
2023/03/10 11:17:13;;;;;;;69.47;18.33;;;1.80;99.90;;;;;;5105906;28;20060;-72
2023/03/10 11:19:55;;;;;;;78.47;19.08;;;1.80;99.90;;;;;;5114703;28;20050;-73
2023/03/10 11:22:35;;;;;;;69.35;17.40;;;1.70;99.90;;;;;;5113659;28;20043;-72
2023/03/10 11:25:11;;;;;;;72.13;17.90;;;1.70;99.90;;;;;;5079216;28;20090;-72
2023/03/10 11:27:59;;;;;;;73.65;18.10;;;1.80;99.90;;;;;;5114314;28;20407;-73
2023/03/10 11:30:38;;;;;;;63.03;16.38;;;1.80;99.90;;;;;;5114616;28;20384;-72
2023/03/10 11:33:43;;;;;;;55.75;14.88;;;1.80;99.90;;;;;;5095683;28;20096;-73
2023/03/10 11:36:29;;;;;;;64.47;17.50;;;1.90;99.90;;;;;;5113575;28;20101;-73
2023/03/10 11:39:21;;;;;;;58.17;13.93;;;2.00;99.90;;;;;;5113914;28;20159;-72
2023/03/10 11:41:54;;;;;;;65.97;17.35;;;1.90;99.90;;;;;;5114421;28;20104;-72
2023/03/10 11:44:50;;;;;;;66.45;17.48;;;1.90;99.90;;;;;;5095891;28;20489;-73
2023/03/10 11:47:21;;;;;;;61.03;15.18;;;1.90;99.90;;;;;;5114230;28;20108;-72
2023/03/10 11:49:58;;;;;;;62.05;15.90;;;1.90;99.90;;;;;;5114002;28;20058;-72
2023/03/10 11:52:26;;;;;;;71.97;19.33;;;2.00;99.90;;;;;;5096331;28;20078;-73
2023/03/10 11:55:11;;;;;;;63.17;15.82;;;2.00;99.90;;;;;;5094549;28;20060;-72
2023/03/10 11:57:43;;;;;;;58.63;15.18;;;2.10;99.90;;;;;;5113838;28;20481;-73
2023/03/10 12:00:25;;;;;;;63.78;15.35;;;2.10;99.90;;;;;;5112441;28;20091;-73
2023/03/10 12:03:18;;;;;;;61.63;16.02;;;2.20;99.90;;;;;;5095584;28;20134;-73
2023/03/10 12:06:01;;;;;;;58.47;15.52;;;2.20;99.90;;;;;;5080602;28;20055;-73
2023/03/10 12:08:33;;;;;;;54.03;13.93;;;2.20;99.90;;;;;;5095608;28;20495;-73
2023/03/10 12:11:03;;;;;;;53.67;13.70;;;2.20;99.90;;;;;;5113300;28;20047;-74
2023/03/10 12:13:42;;;;;;;50.53;14.07;;;2.20;99.90;;;;;;5095392;28;20502;-74
2023/03/10 12:16:30;;;;;;;60.33;15.65;;;2.20;99.90;;;;;;5113415;28;20043;-73
2023/03/10 12:18:57;;;;;;;53.05;14.93;;;2.00;99.90;;;;;;5112952;28;20522;-74
2023/03/10 12:21:25;;;;;;;54.85;15.32;;;2.10;99.90;;;;;;5113452;28;20492;-74
2023/03/10 12:24:00;;;;;;;49.33;12.57;;;2.00;99.90;;;;;;5095491;28;20044;-72
2023/03/10 12:26:37;;;;;;;51.70;13.13;;;2.10;99.90;;;;;;5095126;28;20187;-72
2023/03/10 12:29:21;;;;;;;43.90;11.80;;;2.10;99.90;;;;;;5113018;28;20130;-72
2023/03/10 12:31:51;;;;;;;53.08;13.90;;;2.00;99.90;;;;;;5112137;28;20461;-74
2023/03/10 12:34:27;;;;;;;61.53;19.23;;;1.90;99.90;;;;;;5112807;28;20047;-73
2023/03/10 12:37:01;;;;;;;55.10;14.55;;;1.80;99.90;;;;;;5113088;28;20073;-72
2023/03/10 12:39:26;;;;;;;57.60;14.40;;;1.80;99.90;;;;;;5078860;28;20094;-75
2023/03/10 12:41:55;;;;;;;61.22;17.75;;;1.60;99.90;;;;;;5095073;28;20455;-73
2023/03/10 12:44:39;;;;;;;56.15;15.70;;;1.70;99.90;;;;;;5112827;28;20155;-73
2023/03/10 12:47:16;;;;;;;55.08;14.38;;;1.50;99.90;;;;;;5078053;28;20043;-72
2023/03/10 12:49:59;;;;;;;65.72;16.33;;;1.50;99.90;;;;;;5113539;28;20044;-73
2023/03/10 12:52:40;;;;;;;56.22;12.43;;;1.50;99.90;;;;;;5095554;28;20044;-71
2023/03/10 12:55:16;;;;;;;63.90;19.05;;;1.50;99.90;;;;;;5111661;28;20486;-73